sensor_id;sensor_type;location;lat;lon;timestamp;P1;durP1;ratioP1;P2;durP2;ratioP2
68800;SDS011;55784;50.734;7.086;2022-12-24T00:00:35;10.52;;;1.38;;
68800;SDS011;55784;50.734;7.086;2022-12-24T00:03:01;12.40;;;1.33;;
68800;SDS011;55784;50.734;7.086;2022-12-24T00:05:26;13.60;;;1.85;;
68800;SDS011;55784;50.734;7.086;2022-12-24T00:07:52;8.53;;;1.20;;
68800;SDS011;55784;50.734;7.086;2022-12-24T00:10:17;10.07;;;1.37;;
68800;SDS011;55784;50.734;7.086;2022-12-24T00:12:53;11.25;;;1.65;;
68800;SDS011;55784;50.734;7.086;2022-12-24T00:15:18;9.93;;;1.37;;
68800;SDS011;55784;50.734;7.086;2022-12-24T00:17:43;10.63;;;1.50;;
68800;SDS011;55784;50.734;7.086;2022-12-24T00:20:09;12.73;;;1.50;;
68800;SDS011;55784;50.734;7.086;2022-12-24T00:22:34;10.20;;;1.33;;
68800;SDS011;55784;50.734;7.086;2022-12-24T00:24:59;11.10;;;1.30;;
68800;SDS011;55784;50.734;7.086;2022-12-24T00:27:24;14.57;;;2.10;;
68800;SDS011;55784;50.734;7.086;2022-12-24T00:29:50;14.97;;;1.57;;
68800;SDS011;55784;50.734;7.086;2022-12-24T00:32:15;11.70;;;1.65;;
68800;SDS011;55784;50.734;7.086;2022-12-24T00:34:40;11.20;;;1.20;;
68800;SDS011;55784;50.734;7.086;2022-12-24T00:37:06;12.70;;;1.93;;
68800;SDS011;55784;50.734;7.086;2022-12-24T00:39:31;13.17;;;1.60;;
68800;SDS011;55784;50.734;7.086;2022-12-24T00:41:57;10.70;;;1.27;;
68800;SDS011;55784;50.734;7.086;2022-12-24T00:44:22;8.07;;;1.20;;
68800;SDS011;55784;50.734;7.086;2022-12-24T00:46:48;12.20;;;1.53;;
68800;SDS011;55784;50.734;7.086;2022-12-24T00:49:13;7.57;;;1.20;;
68800;SDS011;55784;50.734;7.086;2022-12-24T00:51:39;11.15;;;1.35;;
68800;SDS011;55784;50.734;7.086;2022-12-24T00:54:05;9.50;;;1.10;;
68800;SDS011;55784;50.734;7.086;2022-12-24T00:56:30;14.20;;;2.10;;
68800;SDS011;55784;50.734;7.086;2022-12-24T00:58:56;8.03;;;1.00;;
68800;SDS011;55784;50.734;7.086;2022-12-24T01:01:21;9.70;;;1.13;;
68800;SDS011;55784;50.734;7.086;2022-12-24T01:03:48;11.73;;;1.38;;
68800;SDS011;55784;50.734;7.086;2022-12-24T01:06:16;10.35;;;1.20;;
68800;SDS011;55784;50.734;7.086;2022-12-24T01:08:43;11.52;;;1.52;;
68800;SDS011;55784;50.734;7.086;2022-12-24T01:11:09;8.48;;;1.13;;
68800;SDS011;55784;50.734;7.086;2022-12-24T01:13:35;12.60;;;1.63;;
68800;SDS011;55784;50.734;7.086;2022-12-24T01:16:01;10.40;;;1.35;;
68800;SDS011;55784;50.734;7.086;2022-12-24T01:18:27;7.53;;;1.00;;
68800;SDS011;55784;50.734;7.086;2022-12-24T01:20:59;11.13;;;1.43;;
68800;SDS011;55784;50.734;7.086;2022-12-24T01:23:26;10.82;;;1.27;;
68800;SDS011;55784;50.734;7.086;2022-12-24T01:25:52;8.90;;;1.20;;
68800;SDS011;55784;50.734;7.086;2022-12-24T01:28:18;12.43;;;1.40;;
68800;SDS011;55784;50.734;7.086;2022-12-24T01:30:44;11.80;;;1.27;;
68800;SDS011;55784;50.734;7.086;2022-12-24T01:33:13;9.43;;;1.30;;
68800;SDS011;55784;50.734;7.086;2022-12-24T01:35:39;7.32;;;1.15;;
68800;SDS011;55784;50.734;7.086;2022-12-24T01:38:06;12.90;;;1.40;;
68800;SDS011;55784;50.734;7.086;2022-12-24T01:40:32;10.65;;;1.48;;
68800;SDS011;55784;50.734;7.086;2022-12-24T01:43:17;10.52;;;1.30;;
68800;SDS011;55784;50.734;7.086;2022-12-24T01:45:48;9.38;;;1.00;;
68800;SDS011;55784;50.734;7.086;2022-12-24T01:48:31;10.45;;;1.23;;
68800;SDS011;55784;50.734;7.086;2022-12-24T01:53:54;9.60;;;1.10;;
68800;SDS011;55784;50.734;7.086;2022-12-24T01:56:23;12.48;;;1.65;;
68800;SDS011;55784;50.734;7.086;2022-12-24T01:58:51;10.50;;;1.30;;
68800;SDS011;55784;50.734;7.086;2022-12-24T02:01:19;9.65;;;1.10;;
68800;SDS011;55784;50.734;7.086;2022-12-24T02:03:44;8.90;;;1.00;;
68800;SDS011;55784;50.734;7.086;2022-12-24T02:06:10;12.88;;;1.20;;
68800;SDS011;55784;50.734;7.086;2022-12-24T02:08:43;11.03;;;1.77;;
68800;SDS011;55784;50.734;7.086;2022-12-24T02:11:13;11.77;;;1.05;;
68800;SDS011;55784;50.734;7.086;2022-12-24T02:13:41;8.27;;;0.82;;
68800;SDS011;55784;50.734;7.086;2022-12-24T02:16:16;11.68;;;1.55;;
68800;SDS011;55784;50.734;7.086;2022-12-24T02:18:51;9.15;;;0.93;;
68800;SDS011;55784;50.734;7.086;2022-12-24T02:27:28;6.60;;;1.13;;
68800;SDS011;55784;50.734;7.086;2022-12-24T02:30:15;7.93;;;1.08;;
68800;SDS011;55784;50.734;7.086;2022-12-24T02:41:18;7.22;;;1.10;;
68800;SDS011;55784;50.734;7.086;2022-12-24T02:43:46;7.93;;;1.00;;
68800;SDS011;55784;50.734;7.086;2022-12-24T02:46:17;6.18;;;1.00;;
68800;SDS011;55784;50.734;7.086;2022-12-24T02:48:47;11.30;;;1.63;;
68800;SDS011;55784;50.734;7.086;2022-12-24T02:51:13;12.02;;;1.10;;
68800;SDS011;55784;50.734;7.086;2022-12-24T02:53:39;6.22;;;0.90;;
68800;SDS011;55784;50.734;7.086;2022-12-24T02:56:15;9.03;;;1.27;;
68800;SDS011;55784;50.734;7.086;2022-12-24T03:04:42;6.90;;;0.90;;
68800;SDS011;55784;50.734;7.086;2022-12-24T03:07:31;9.68;;;1.40;;
68800;SDS011;55784;50.734;7.086;2022-12-24T03:13:09;10.10;;;1.27;;
68800;SDS011;55784;50.734;7.086;2022-12-24T03:15:38;7.82;;;1.10;;
68800;SDS011;55784;50.734;7.086;2022-12-24T03:18:05;6.80;;;0.98;;
68800;SDS011;55784;50.734;7.086;2022-12-24T03:20:40;8.82;;;1.00;;
68800;SDS011;55784;50.734;7.086;2022-12-24T03:23:08;7.40;;;1.13;;
68800;SDS011;55784;50.734;7.086;2022-12-24T03:25:34;7.93;;;0.85;;
68800;SDS011;55784;50.734;7.086;2022-12-24T03:28:04;7.40;;;0.90;;
68800;SDS011;55784;50.734;7.086;2022-12-24T03:30:31;9.75;;;1.40;;
68800;SDS011;55784;50.734;7.086;2022-12-24T03:32:57;8.90;;;1.20;;
68800;SDS011;55784;50.734;7.086;2022-12-24T03:35:22;9.80;;;1.15;;
68800;SDS011;55784;50.734;7.086;2022-12-24T03:37:47;6.75;;;1.00;;
68800;SDS011;55784;50.734;7.086;2022-12-24T03:40:13;11.23;;;1.30;;
68800;SDS011;55784;50.734;7.086;2022-12-24T03:42:38;7.20;;;1.20;;
68800;SDS011;55784;50.734;7.086;2022-12-24T03:45:04;5.27;;;0.90;;
68800;SDS011;55784;50.734;7.086;2022-12-24T03:47:30;7.68;;;1.08;;
68800;SDS011;55784;50.734;7.086;2022-12-24T03:49:55;7.53;;;1.02;;
68800;SDS011;55784;50.734;7.086;2022-12-24T03:52:20;8.23;;;1.10;;
68800;SDS011;55784;50.734;7.086;2022-12-24T03:54:46;8.23;;;1.20;;
68800;SDS011;55784;50.734;7.086;2022-12-24T03:57:11;10.47;;;1.30;;
68800;SDS011;55784;50.734;7.086;2022-12-24T03:59:37;10.90;;;1.30;;
68800;SDS011;55784;50.734;7.086;2022-12-24T04:02:02;10.30;;;1.20;;
68800;SDS011;55784;50.734;7.086;2022-12-24T04:04:27;8.10;;;1.33;;
68800;SDS011;55784;50.734;7.086;2022-12-24T04:06:53;11.10;;;1.67;;
68800;SDS011;55784;50.734;7.086;2022-12-24T04:09:18;10.07;;;1.30;;
68800;SDS011;55784;50.734;7.086;2022-12-24T04:11:43;7.90;;;1.13;;
68800;SDS011;55784;50.734;7.086;2022-12-24T04:14:09;10.80;;;1.40;;
68800;SDS011;55784;50.734;7.086;2022-12-24T04:16:34;10.90;;;1.17;;
68800;SDS011;55784;50.734;7.086;2022-12-24T04:18:59;11.37;;;1.80;;
68800;SDS011;55784;50.734;7.086;2022-12-24T04:21:24;11.17;;;1.53;;
68800;SDS011;55784;50.734;7.086;2022-12-24T04:23:50;9.07;;;1.23;;
68800;SDS011;55784;50.734;7.086;2022-12-24T04:26:15;9.50;;;1.00;;
68800;SDS011;55784;50.734;7.086;2022-12-24T04:28:41;7.53;;;0.80;;
68800;SDS011;55784;50.734;7.086;2022-12-24T04:31:07;7.07;;;0.80;;
68800;SDS011;55784;50.734;7.086;2022-12-24T04:33:35;6.85;;;0.88;;
68800;SDS011;55784;50.734;7.086;2022-12-24T04:36:01;6.22;;;0.70;;
68800;SDS011;55784;50.734;7.086;2022-12-24T04:38:28;5.78;;;0.88;;
68800;SDS011;55784;50.734;7.086;2022-12-24T04:41:13;7.30;;;0.70;;
68800;SDS011;55784;50.734;7.086;2022-12-24T04:43:39;6.38;;;0.75;;
68800;SDS011;55784;50.734;7.086;2022-12-24T04:46:08;4.60;;;0.60;;
68800;SDS011;55784;50.734;7.086;2022-12-24T04:48:35;4.95;;;0.60;;
68800;SDS011;55784;50.734;7.086;2022-12-24T04:51:02;5.60;;;0.50;;
68800;SDS011;55784;50.734;7.086;2022-12-24T04:53:29;6.03;;;0.70;;
68800;SDS011;55784;50.734;7.086;2022-12-24T04:55:55;6.20;;;0.80;;
68800;SDS011;55784;50.734;7.086;2022-12-24T04:58:21;6.40;;;0.80;;
68800;SDS011;55784;50.734;7.086;2022-12-24T05:00:46;4.43;;;0.50;;
68800;SDS011;55784;50.734;7.086;2022-12-24T05:03:11;4.17;;;0.60;;
68800;SDS011;55784;50.734;7.086;2022-12-24T05:05:37;4.67;;;0.70;;
68800;SDS011;55784;50.734;7.086;2022-12-24T05:08:02;4.55;;;0.70;;
68800;SDS011;55784;50.734;7.086;2022-12-24T05:10:27;4.95;;;0.50;;
68800;SDS011;55784;50.734;7.086;2022-12-24T05:12:53;4.70;;;0.70;;
68800;SDS011;55784;50.734;7.086;2022-12-24T05:15:18;4.23;;;0.73;;
68800;SDS011;55784;50.734;7.086;2022-12-24T05:17:43;4.67;;;0.70;;
68800;SDS011;55784;50.734;7.086;2022-12-24T05:20:09;5.13;;;0.73;;
68800;SDS011;55784;50.734;7.086;2022-12-24T05:22:34;4.83;;;0.60;;
68800;SDS011;55784;50.734;7.086;2022-12-24T05:25:18;5.28;;;0.90;;
68800;SDS011;55784;50.734;7.086;2022-12-24T05:28:02;6.38;;;0.88;;
68800;SDS011;55784;50.734;7.086;2022-12-24T05:30:28;3.77;;;0.80;;
68800;SDS011;55784;50.734;7.086;2022-12-24T05:32:53;9.87;;;1.00;;
68800;SDS011;55784;50.734;7.086;2022-12-24T05:35:18;6.65;;;0.95;;
68800;SDS011;55784;50.734;7.086;2022-12-24T05:37:44;9.30;;;1.13;;
68800;SDS011;55784;50.734;7.086;2022-12-24T05:40:09;8.50;;;1.10;;
68800;SDS011;55784;50.734;7.086;2022-12-24T05:42:35;7.53;;;1.00;;
68800;SDS011;55784;50.734;7.086;2022-12-24T05:45:03;9.20;;;1.33;;
68800;SDS011;55784;50.734;7.086;2022-12-24T05:47:28;9.73;;;1.33;;
68800;SDS011;55784;50.734;7.086;2022-12-24T05:49:54;6.60;;;1.08;;
68800;SDS011;55784;50.734;7.086;2022-12-24T05:52:19;11.48;;;1.20;;
68800;SDS011;55784;50.734;7.086;2022-12-24T05:54:44;10.23;;;1.20;;
68800;SDS011;55784;50.734;7.086;2022-12-24T05:57:10;6.50;;;0.80;;
68800;SDS011;55784;50.734;7.086;2022-12-24T05:59:35;6.47;;;0.87;;
68800;SDS011;55784;50.734;7.086;2022-12-24T06:02:00;6.90;;;0.80;;
68800;SDS011;55784;50.734;7.086;2022-12-24T06:04:25;5.93;;;0.70;;
68800;SDS011;55784;50.734;7.086;2022-12-24T06:06:51;6.90;;;1.10;;
68800;SDS011;55784;50.734;7.086;2022-12-24T06:09:16;5.73;;;0.87;;
68800;SDS011;55784;50.734;7.086;2022-12-24T06:11:41;3.57;;;0.70;;
68800;SDS011;55784;50.734;7.086;2022-12-24T06:14:07;7.17;;;0.67;;
68800;SDS011;55784;50.734;7.086;2022-12-24T06:16:32;5.85;;;0.70;;
68800;SDS011;55784;50.734;7.086;2022-12-24T06:18:57;5.53;;;0.70;;
68800;SDS011;55784;50.734;7.086;2022-12-24T06:21:23;5.67;;;0.80;;
68800;SDS011;55784;50.734;7.086;2022-12-24T06:23:48;5.13;;;0.70;;
68800;SDS011;55784;50.734;7.086;2022-12-24T06:26:14;4.37;;;0.50;;
68800;SDS011;55784;50.734;7.086;2022-12-24T06:28:42;5.20;;;0.60;;
68800;SDS011;55784;50.734;7.086;2022-12-24T06:31:10;4.25;;;0.50;;
68800;SDS011;55784;50.734;7.086;2022-12-24T06:33:37;4.00;;;0.60;;
68800;SDS011;55784;50.734;7.086;2022-12-24T06:36:05;4.80;;;0.50;;
68800;SDS011;55784;50.734;7.086;2022-12-24T06:38:31;6.25;;;0.82;;
68800;SDS011;55784;50.734;7.086;2022-12-24T06:40:57;4.13;;;0.57;;
68800;SDS011;55784;50.734;7.086;2022-12-24T06:43:23;6.50;;;0.63;;
68800;SDS011;55784;50.734;7.086;2022-12-24T06:45:49;7.87;;;0.80;;
68800;SDS011;55784;50.734;7.086;2022-12-24T06:48:15;7.10;;;1.02;;
68800;SDS011;55784;50.734;7.086;2022-12-24T06:50:40;4.93;;;0.60;;
68800;SDS011;55784;50.734;7.086;2022-12-24T06:53:06;5.10;;;0.60;;
68800;SDS011;55784;50.734;7.086;2022-12-24T06:55:31;5.53;;;0.80;;
68800;SDS011;55784;50.734;7.086;2022-12-24T06:57:57;8.77;;;1.13;;
68800;SDS011;55784;50.734;7.086;2022-12-24T07:00:22;7.97;;;1.00;;
68800;SDS011;55784;50.734;7.086;2022-12-24T07:02:48;9.73;;;1.10;;
68800;SDS011;55784;50.734;7.086;2022-12-24T07:05:13;8.43;;;1.20;;
68800;SDS011;55784;50.734;7.086;2022-12-24T07:07:39;8.43;;;1.08;;
68800;SDS011;55784;50.734;7.086;2022-12-24T07:10:07;9.07;;;1.10;;
68800;SDS011;55784;50.734;7.086;2022-12-24T07:12:35;7.97;;;1.20;;
68800;SDS011;55784;50.734;7.086;2022-12-24T07:15:00;9.95;;;1.42;;
68800;SDS011;55784;50.734;7.086;2022-12-24T07:17:26;10.13;;;1.40;;
68800;SDS011;55784;50.734;7.086;2022-12-24T07:19:51;12.53;;;1.50;;
68800;SDS011;55784;50.734;7.086;2022-12-24T07:22:16;14.37;;;1.67;;
68800;SDS011;55784;50.734;7.086;2022-12-24T07:24:42;8.53;;;1.20;;
68800;SDS011;55784;50.734;7.086;2022-12-24T07:27:07;8.20;;;1.37;;
68800;SDS011;55784;50.734;7.086;2022-12-24T07:29:32;11.30;;;1.40;;
68800;SDS011;55784;50.734;7.086;2022-12-24T07:31:58;10.40;;;1.55;;
68800;SDS011;55784;50.734;7.086;2022-12-24T07:34:23;10.20;;;1.30;;
68800;SDS011;55784;50.734;7.086;2022-12-24T07:36:49;14.03;;;1.53;;
68800;SDS011;55784;50.734;7.086;2022-12-24T07:39:14;12.20;;;1.30;;
68800;SDS011;55784;50.734;7.086;2022-12-24T07:41:39;9.00;;;1.70;;
68800;SDS011;55784;50.734;7.086;2022-12-24T07:44:05;10.00;;;1.50;;
68800;SDS011;55784;50.734;7.086;2022-12-24T07:46:30;11.83;;;1.47;;
68800;SDS011;55784;50.734;7.086;2022-12-24T07:48:55;11.40;;;1.98;;
68800;SDS011;55784;50.734;7.086;2022-12-24T07:51:21;11.93;;;2.05;;
68800;SDS011;55784;50.734;7.086;2022-12-24T07:53:46;9.90;;;1.40;;
68800;SDS011;55784;50.734;7.086;2022-12-24T07:56:12;13.70;;;1.80;;
68800;SDS011;55784;50.734;7.086;2022-12-24T07:58:38;10.35;;;1.73;;
68800;SDS011;55784;50.734;7.086;2022-12-24T08:01:04;12.87;;;1.50;;
68800;SDS011;55784;50.734;7.086;2022-12-24T08:03:29;10.53;;;1.80;;
68800;SDS011;55784;50.734;7.086;2022-12-24T08:05:54;11.97;;;1.97;;
68800;SDS011;55784;50.734;7.086;2022-12-24T08:08:20;8.00;;;1.60;;
68800;SDS011;55784;50.734;7.086;2022-12-24T08:10:45;13.60;;;1.90;;
68800;SDS011;55784;50.734;7.086;2022-12-24T08:13:11;11.90;;;2.20;;
68800;SDS011;55784;50.734;7.086;2022-12-24T08:15:37;10.45;;;2.40;;
68800;SDS011;55784;50.734;7.086;2022-12-24T08:18:02;10.90;;;2.23;;
68800;SDS011;55784;50.734;7.086;2022-12-24T08:20:28;12.70;;;1.83;;
68800;SDS011;55784;50.734;7.086;2022-12-24T08:22:53;7.43;;;1.40;;
68800;SDS011;55784;50.734;7.086;2022-12-24T08:25:19;15.43;;;1.70;;
68800;SDS011;55784;50.734;7.086;2022-12-24T08:27:45;13.98;;;1.98;;
68800;SDS011;55784;50.734;7.086;2022-12-24T08:30:11;15.85;;;2.20;;
68800;SDS011;55784;50.734;7.086;2022-12-24T08:32:36;15.90;;;2.37;;
68800;SDS011;55784;50.734;7.086;2022-12-24T08:35:02;9.48;;;1.60;;
68800;SDS011;55784;50.734;7.086;2022-12-24T08:37:27;10.00;;;2.03;;
68800;SDS011;55784;50.734;7.086;2022-12-24T08:39:53;12.03;;;1.93;;
68800;SDS011;55784;50.734;7.086;2022-12-24T08:42:18;10.63;;;1.63;;
68800;SDS011;55784;50.734;7.086;2022-12-24T08:44:43;12.43;;;1.60;;
68800;SDS011;55784;50.734;7.086;2022-12-24T08:47:09;12.07;;;1.70;;
68800;SDS011;55784;50.734;7.086;2022-12-24T08:49:34;11.85;;;1.70;;
68800;SDS011;55784;50.734;7.086;2022-12-24T08:51:59;15.27;;;2.10;;
68800;SDS011;55784;50.734;7.086;2022-12-24T08:54:25;13.90;;;2.23;;
68800;SDS011;55784;50.734;7.086;2022-12-24T08:56:50;9.87;;;1.67;;
68800;SDS011;55784;50.734;7.086;2022-12-24T08:59:16;13.10;;;1.57;;
68800;SDS011;55784;50.734;7.086;2022-12-24T09:01:42;11.13;;;1.60;;
68800;SDS011;55784;50.734;7.086;2022-12-24T09:04:07;11.50;;;2.00;;
68800;SDS011;55784;50.734;7.086;2022-12-24T09:06:35;9.63;;;1.50;;
68800;SDS011;55784;50.734;7.086;2022-12-24T09:09:01;11.55;;;1.92;;
68800;SDS011;55784;50.734;7.086;2022-12-24T09:11:27;11.95;;;1.98;;
68800;SDS011;55784;50.734;7.086;2022-12-24T09:13:52;14.03;;;2.43;;
68800;SDS011;55784;50.734;7.086;2022-12-24T09:16:18;12.17;;;1.50;;
68800;SDS011;55784;50.734;7.086;2022-12-24T09:18:43;9.93;;;1.40;;
68800;SDS011;55784;50.734;7.086;2022-12-24T09:21:10;11.65;;;1.70;;
68800;SDS011;55784;50.734;7.086;2022-12-24T09:23:38;10.40;;;1.93;;
68800;SDS011;55784;50.734;7.086;2022-12-24T09:26:08;9.57;;;1.73;;
68800;SDS011;55784;50.734;7.086;2022-12-24T09:28:35;8.85;;;1.50;;
68800;SDS011;55784;50.734;7.086;2022-12-24T09:31:01;11.07;;;1.70;;
68800;SDS011;55784;50.734;7.086;2022-12-24T09:33:29;11.48;;;1.60;;
68800;SDS011;55784;50.734;7.086;2022-12-24T09:35:55;10.73;;;1.58;;
68800;SDS011;55784;50.734;7.086;2022-12-24T09:38:21;12.63;;;1.50;;
68800;SDS011;55784;50.734;7.086;2022-12-24T09:40:47;10.63;;;1.70;;
68800;SDS011;55784;50.734;7.086;2022-12-24T09:43:17;13.63;;;1.67;;
68800;SDS011;55784;50.734;7.086;2022-12-24T09:45:47;13.40;;;1.45;;
68800;SDS011;55784;50.734;7.086;2022-12-24T09:48:17;11.32;;;1.45;;
68800;SDS011;55784;50.734;7.086;2022-12-24T09:50:49;10.10;;;1.60;;
68800;SDS011;55784;50.734;7.086;2022-12-24T09:55:51;15.02;;;1.92;;
68800;SDS011;55784;50.734;7.086;2022-12-24T09:58:23;12.63;;;1.65;;
68800;SDS011;55784;50.734;7.086;2022-12-24T10:00:54;10.00;;;1.65;;
68800;SDS011;55784;50.734;7.086;2022-12-24T10:03:20;11.98;;;1.77;;
68800;SDS011;55784;50.734;7.086;2022-12-24T10:08:19;11.93;;;1.50;;
68800;SDS011;55784;50.734;7.086;2022-12-24T10:10:57;12.77;;;1.85;;
68800;SDS011;55784;50.734;7.086;2022-12-24T10:22:30;11.37;;;1.83;;
68800;SDS011;55784;50.734;7.086;2022-12-24T10:25:23;11.75;;;1.83;;
68800;SDS011;55784;50.734;7.086;2022-12-24T10:27:54;12.15;;;1.83;;
68800;SDS011;55784;50.734;7.086;2022-12-24T10:30:23;9.50;;;1.50;;
68800;SDS011;55784;50.734;7.086;2022-12-24T10:32:50;12.17;;;1.50;;
68800;SDS011;55784;50.734;7.086;2022-12-24T10:35:19;11.52;;;1.50;;
68800;SDS011;55784;50.734;7.086;2022-12-24T10:37:52;9.32;;;1.60;;
68800;SDS011;55784;50.734;7.086;2022-12-24T10:43:14;11.95;;;1.80;;
68800;SDS011;55784;50.734;7.086;2022-12-24T10:45:43;11.55;;;1.60;;
68800;SDS011;55784;50.734;7.086;2022-12-24T10:48:13;10.85;;;1.65;;
68800;SDS011;55784;50.734;7.086;2022-12-24T10:51:05;9.90;;;1.50;;
68800;SDS011;55784;50.734;7.086;2022-12-24T10:53:59;12.30;;;1.67;;
68800;SDS011;55784;50.734;7.086;2022-12-24T10:56:30;9.57;;;1.42;;
68800;SDS011;55784;50.734;7.086;2022-12-24T10:58:56;11.17;;;1.87;;
68800;SDS011;55784;50.734;7.086;2022-12-24T11:01:41;9.13;;;1.50;;
68800;SDS011;55784;50.734;7.086;2022-12-24T11:04:13;11.93;;;2.10;;
68800;SDS011;55784;50.734;7.086;2022-12-24T11:09:31;10.38;;;2.03;;
68800;SDS011;55784;50.734;7.086;2022-12-24T11:11:59;14.48;;;1.77;;
68800;SDS011;55784;50.734;7.086;2022-12-24T11:14:26;11.40;;;1.63;;
68800;SDS011;55784;50.734;7.086;2022-12-24T11:16:56;11.40;;;1.57;;
68800;SDS011;55784;50.734;7.086;2022-12-24T11:19:30;12.35;;;1.67;;
68800;SDS011;55784;50.734;7.086;2022-12-24T11:21:58;12.02;;;1.50;;
68800;SDS011;55784;50.734;7.086;2022-12-24T11:24:28;11.35;;;1.42;;
68800;SDS011;55784;50.734;7.086;2022-12-24T11:27:20;10.85;;;1.70;;
68800;SDS011;55784;50.734;7.086;2022-12-24T11:29:49;12.10;;;1.50;;
68800;SDS011;55784;50.734;7.086;2022-12-24T11:32:24;11.18;;;1.88;;
68800;SDS011;55784;50.734;7.086;2022-12-24T11:34:49;13.47;;;2.00;;
68800;SDS011;55784;50.734;7.086;2022-12-24T11:37:15;10.10;;;2.00;;
68800;SDS011;55784;50.734;7.086;2022-12-24T11:39:47;9.03;;;1.37;;
68800;SDS011;55784;50.734;7.086;2022-12-24T11:42:24;12.95;;;1.60;;
68800;SDS011;55784;50.734;7.086;2022-12-24T11:44:50;13.75;;;1.58;;
68800;SDS011;55784;50.734;7.086;2022-12-24T11:47:15;11.77;;;1.50;;
68800;SDS011;55784;50.734;7.086;2022-12-24T11:49:41;9.57;;;1.70;;
68800;SDS011;55784;50.734;7.086;2022-12-24T11:57:48;13.30;;;2.63;;
68800;SDS011;55784;50.734;7.086;2022-12-24T12:00:18;13.05;;;1.95;;
68800;SDS011;55784;50.734;7.086;2022-12-24T12:02:45;14.70;;;2.53;;
68800;SDS011;55784;50.734;7.086;2022-12-24T12:05:16;13.85;;;1.83;;
68800;SDS011;55784;50.734;7.086;2022-12-24T12:07:45;14.13;;;2.25;;
68800;SDS011;55784;50.734;7.086;2022-12-24T12:12:56;15.13;;;1.97;;
68800;SDS011;55784;50.734;7.086;2022-12-24T12:15:26;11.63;;;1.73;;
68800;SDS011;55784;50.734;7.086;2022-12-24T12:18:02;11.63;;;1.77;;
68800;SDS011;55784;50.734;7.086;2022-12-24T12:20:36;12.82;;;1.80;;
68800;SDS011;55784;50.734;7.086;2022-12-24T12:23:22;11.98;;;1.80;;
68800;SDS011;55784;50.734;7.086;2022-12-24T12:25:59;14.03;;;2.10;;
68800;SDS011;55784;50.734;7.086;2022-12-24T12:28:32;12.73;;;1.77;;
68800;SDS011;55784;50.734;7.086;2022-12-24T12:31:04;10.60;;;1.95;;
68800;SDS011;55784;50.734;7.086;2022-12-24T12:33:40;12.60;;;3.03;;
68800;SDS011;55784;50.734;7.086;2022-12-24T12:36:10;11.73;;;1.67;;
68800;SDS011;55784;50.734;7.086;2022-12-24T12:38:38;13.20;;;2.13;;
68800;SDS011;55784;50.734;7.086;2022-12-24T12:44:01;11.32;;;1.42;;
68800;SDS011;55784;50.734;7.086;2022-12-24T12:46:55;9.40;;;1.40;;
68800;SDS011;55784;50.734;7.086;2022-12-24T12:49:58;12.60;;;1.85;;
68800;SDS011;55784;50.734;7.086;2022-12-24T12:55:35;11.43;;;1.60;;
68800;SDS011;55784;50.734;7.086;2022-12-24T12:58:13;15.30;;;1.83;;
68800;SDS011;55784;50.734;7.086;2022-12-24T13:01:19;11.02;;;1.60;;
68800;SDS011;55784;50.734;7.086;2022-12-24T13:20:19;11.27;;;1.80;;
68800;SDS011;55784;50.734;7.086;2022-12-24T13:22:57;10.80;;;1.50;;
68800;SDS011;55784;50.734;7.086;2022-12-24T13:25:44;13.63;;;1.58;;
68800;SDS011;55784;50.734;7.086;2022-12-24T13:30:41;10.55;;;1.70;;
68800;SDS011;55784;50.734;7.086;2022-12-24T13:33:10;9.57;;;1.52;;
68800;SDS011;55784;50.734;7.086;2022-12-24T13:35:37;9.63;;;1.60;;
68800;SDS011;55784;50.734;7.086;2022-12-24T13:40:51;11.23;;;1.63;;
68800;SDS011;55784;50.734;7.086;2022-12-24T13:43:17;11.38;;;1.40;;
68800;SDS011;55784;50.734;7.086;2022-12-24T13:45:49;13.53;;;1.80;;
68800;SDS011;55784;50.734;7.086;2022-12-24T13:48:29;11.10;;;1.85;;
68800;SDS011;55784;50.734;7.086;2022-12-24T13:50:57;13.27;;;1.80;;
68800;SDS011;55784;50.734;7.086;2022-12-24T13:53:58;12.00;;;2.20;;
68800;SDS011;55784;50.734;7.086;2022-12-24T13:56:24;12.35;;;1.60;;
68800;SDS011;55784;50.734;7.086;2022-12-24T13:58:51;13.57;;;2.10;;
68800;SDS011;55784;50.734;7.086;2022-12-24T14:01:35;10.60;;;1.42;;
68800;SDS011;55784;50.734;7.086;2022-12-24T14:04:04;12.73;;;1.53;;
68800;SDS011;55784;50.734;7.086;2022-12-24T14:06:36;12.48;;;1.83;;
68800;SDS011;55784;50.734;7.086;2022-12-24T14:09:12;9.70;;;1.90;;
68800;SDS011;55784;50.734;7.086;2022-12-24T14:17:40;12.83;;;1.90;;
68800;SDS011;55784;50.734;7.086;2022-12-24T14:19:49;10.77;;;1.60;;
68800;SDS011;55784;50.734;7.086;2022-12-24T14:25:00;13.98;;;2.00;;
68800;SDS011;55784;50.734;7.086;2022-12-24T14:30:06;11.93;;;1.80;;
68800;SDS011;55784;50.734;7.086;2022-12-24T14:32:40;9.88;;;1.77;;
68800;SDS011;55784;50.734;7.086;2022-12-24T14:37:37;11.32;;;1.63;;
68800;SDS011;55784;50.734;7.086;2022-12-24T14:40:03;11.40;;;1.65;;
68800;SDS011;55784;50.734;7.086;2022-12-24T14:42:38;9.80;;;1.73;;
68800;SDS011;55784;50.734;7.086;2022-12-24T14:53:50;14.52;;;1.88;;
68800;SDS011;55784;50.734;7.086;2022-12-24T14:56:31;15.18;;;2.53;;
68800;SDS011;55784;50.734;7.086;2022-12-24T14:58:56;13.23;;;2.07;;
68800;SDS011;55784;50.734;7.086;2022-12-24T15:01:28;13.27;;;2.10;;
68800;SDS011;55784;50.734;7.086;2022-12-24T15:04:13;11.47;;;2.00;;
68800;SDS011;55784;50.734;7.086;2022-12-24T15:06:42;12.18;;;1.77;;
68800;SDS011;55784;50.734;7.086;2022-12-24T15:09:16;11.60;;;1.85;;
68800;SDS011;55784;50.734;7.086;2022-12-24T15:11:44;11.73;;;1.90;;
68800;SDS011;55784;50.734;7.086;2022-12-24T15:14:11;11.88;;;2.00;;
68800;SDS011;55784;50.734;7.086;2022-12-24T15:16:37;12.20;;;2.27;;
68800;SDS011;55784;50.734;7.086;2022-12-24T15:19:04;9.50;;;2.08;;
68800;SDS011;55784;50.734;7.086;2022-12-24T15:21:37;10.95;;;2.20;;
68800;SDS011;55784;50.734;7.086;2022-12-24T15:24:27;11.05;;;1.90;;
68800;SDS011;55784;50.734;7.086;2022-12-24T15:26:57;12.50;;;2.20;;
68800;SDS011;55784;50.734;7.086;2022-12-24T15:29:26;11.88;;;1.95;;
68800;SDS011;55784;50.734;7.086;2022-12-24T15:31:54;13.05;;;2.10;;
68800;SDS011;55784;50.734;7.086;2022-12-24T15:34:25;11.85;;;2.30;;
68800;SDS011;55784;50.734;7.086;2022-12-24T15:36:52;16.50;;;2.38;;
68800;SDS011;55784;50.734;7.086;2022-12-24T15:39:26;14.65;;;2.20;;
68800;SDS011;55784;50.734;7.086;2022-12-24T15:41:51;13.40;;;2.73;;
68800;SDS011;55784;50.734;7.086;2022-12-24T15:44:36;12.70;;;2.40;;
68800;SDS011;55784;50.734;7.086;2022-12-24T15:47:05;16.10;;;2.40;;
68800;SDS011;55784;50.734;7.086;2022-12-24T15:49:33;11.23;;;2.53;;
68800;SDS011;55784;50.734;7.086;2022-12-24T15:52:07;14.73;;;3.10;;
68800;SDS011;55784;50.734;7.086;2022-12-24T15:54:34;10.05;;;2.53;;
68800;SDS011;55784;50.734;7.086;2022-12-24T15:59:49;12.65;;;2.58;;
68800;SDS011;55784;50.734;7.086;2022-12-24T16:10:31;13.33;;;2.47;;
68800;SDS011;55784;50.734;7.086;2022-12-24T16:12:58;14.93;;;2.80;;
68800;SDS011;55784;50.734;7.086;2022-12-24T16:15:24;14.23;;;3.20;;
68800;SDS011;55784;50.734;7.086;2022-12-24T16:17:49;13.00;;;2.90;;
68800;SDS011;55784;50.734;7.086;2022-12-24T16:20:19;11.32;;;2.85;;
68800;SDS011;55784;50.734;7.086;2022-12-24T16:22:46;12.50;;;2.58;;
68800;SDS011;55784;50.734;7.086;2022-12-24T16:25:22;13.63;;;2.88;;
68800;SDS011;55784;50.734;7.086;2022-12-24T16:27:50;17.17;;;3.30;;
68800;SDS011;55784;50.734;7.086;2022-12-24T16:30:16;13.85;;;2.90;;
68800;SDS011;55784;50.734;7.086;2022-12-24T16:32:42;14.98;;;3.03;;
68800;SDS011;55784;50.734;7.086;2022-12-24T16:35:27;15.20;;;3.37;;
68800;SDS011;55784;50.734;7.086;2022-12-24T16:37:57;16.77;;;3.90;;
68800;SDS011;55784;50.734;7.086;2022-12-24T16:40:22;14.43;;;4.23;;
68800;SDS011;55784;50.734;7.086;2022-12-24T16:42:48;17.80;;;4.47;;
68800;SDS011;55784;50.734;7.086;2022-12-24T16:45:32;15.63;;;3.93;;